createdAt,value
2023-05-16T00:00:26.899Z,99745.38
2023-05-16T00:03:31.041Z,99760.13
2023-05-16T00:06:37.392Z,99721.94
2023-05-16T00:09:40.162Z,99688.34
2023-05-16T00:12:44.395Z,99709.09
2023-05-16T00:15:50.084Z,99694.22
2023-05-16T00:18:57.105Z,99765.91
2023-05-16T00:22:00.222Z,99685.00
2023-05-16T00:25:06.268Z,99735.50
2023-05-16T00:28:09.346Z,99709.41
2023-05-16T00:31:12.717Z,99704.84
2023-05-16T00:34:15.712Z,99707.19
2023-05-16T00:37:18.648Z,99732.66
2023-05-16T00:40:21.640Z,99749.81
2023-05-16T00:43:30.754Z,99704.66
2023-05-16T00:46:33.891Z,99702.63
2023-05-16T00:49:36.713Z,99714.03
2023-05-16T00:52:39.578Z,99666.78
2023-05-16T00:55:42.910Z,99654.25
2023-05-16T00:58:46.420Z,99702.63
2023-05-16T01:01:53.051Z,99666.91
2023-05-16T01:04:58.698Z,99670.09
2023-05-16T01:08:10.629Z,99676.75
2023-05-16T01:11:37.135Z,99732.13
2023-05-16T01:15:14.033Z,99671.47
2023-05-16T01:18:46.457Z,99652.34
2023-05-16T01:22:02.840Z,99670.00
2023-05-16T01:25:18.082Z,99673.97
2023-05-16T01:28:21.043Z,99667.63
2023-05-16T01:31:29.140Z,99670.47
2023-05-16T01:34:33.796Z,99682.06
2023-05-16T01:37:41.667Z,99715.31
2023-05-16T01:40:56.735Z,99679.91
2023-05-16T01:44:12.887Z,99702.06
2023-05-16T01:47:17.795Z,99687.84
2023-05-16T01:50:24.604Z,99641.53
2023-05-16T01:53:38.910Z,99653.69
2023-05-16T01:56:45.978Z,99623.78
2023-05-16T01:59:51.716Z,99639.09
2023-05-16T02:02:57.054Z,99651.38
2023-05-16T02:06:02.758Z,99652.00
2023-05-16T02:09:11.369Z,99647.09
2023-05-16T02:12:16.696Z,99666.63
2023-05-16T02:15:23.127Z,99662.75
2023-05-16T02:18:26.407Z,99595.09
2023-05-16T02:21:34.186Z,99636.72
2023-05-16T02:24:37.007Z,99636.69
2023-05-16T02:27:39.814Z,99637.31
2023-05-16T02:30:45.998Z,99643.69
2023-05-16T02:33:48.846Z,99595.41
2023-05-16T02:36:51.734Z,99608.91
2023-05-16T02:39:54.615Z,99622.47
2023-05-16T02:42:58.703Z,99625.28
2023-05-16T02:46:01.731Z,99622.69
2023-05-16T02:49:04.830Z,99595.78
2023-05-16T02:52:08.003Z,99616.78
2023-05-16T02:55:21.797Z,99598.88
2023-05-16T02:58:26.142Z,99601.31
2023-05-16T03:01:29.644Z,99551.22
2023-05-16T03:04:34.603Z,99624.34
2023-05-16T03:07:38.385Z,99575.47
2023-05-16T03:10:41.711Z,99611.34
2023-05-16T03:13:49.962Z,99573.78
2023-05-16T03:16:55.726Z,99598.75
2023-05-16T03:19:58.533Z,99600.44
2023-05-16T03:23:01.527Z,99626.69
2023-05-16T03:26:05.046Z,99609.59
2023-05-16T03:29:07.814Z,99624.66
2023-05-16T03:32:13.039Z,99593.66
2023-05-16T03:35:15.862Z,99610.34
2023-05-16T03:38:20.626Z,99596.03
2023-05-16T03:41:24.074Z,99638.47
2023-05-16T03:44:28.069Z,99584.31
2023-05-16T03:47:32.128Z,99658.97
2023-05-16T03:50:35.069Z,99619.78
2023-05-16T03:53:40.432Z,99640.25
2023-05-16T03:56:43.707Z,99620.75
2023-05-16T03:59:46.976Z,99617.53
2023-05-16T04:02:50.326Z,99629.47
2023-05-16T04:05:53.241Z,99663.09
2023-05-16T04:08:58.171Z,99660.44
2023-05-16T04:12:03.336Z,99657.94
2023-05-16T04:15:07.074Z,99645.53
2023-05-16T04:18:18.319Z,99640.41
2023-05-16T04:21:21.493Z,99696.44
2023-05-16T04:24:26.719Z,99738.91
2023-05-16T04:27:32.636Z,99720.34
2023-05-16T04:30:35.414Z,99696.81
2023-05-16T04:33:38.689Z,99730.28
2023-05-16T04:36:44.470Z,99743.50
2023-05-16T04:39:47.838Z,99691.84
2023-05-16T04:42:51.332Z,99685.47
2023-05-16T04:45:59.889Z,99671.91
2023-05-16T04:49:09.684Z,99682.34
2023-05-16T04:52:12.493Z,99642.19
2023-05-16T04:55:16.292Z,99658.16
2023-05-16T04:58:19.156Z,99624.53
2023-05-16T05:01:25.592Z,99597.94
2023-05-16T05:04:30.947Z,99627.63
2023-05-16T05:07:33.740Z,99604.69
2023-05-16T05:10:36.809Z,99605.25
2023-05-16T05:13:39.780Z,99591.31
2023-05-16T05:16:42.932Z,99630.44
2023-05-16T05:19:49.640Z,99636.16
2023-05-16T05:22:52.930Z,99605.84
2023-05-16T05:25:58.920Z,99634.31
2023-05-16T05:29:05.716Z,99605.03
2023-05-16T05:32:18.268Z,99665.66
2023-05-16T05:35:21.875Z,99622.97
2023-05-16T05:38:26.132Z,99623.81
2023-05-16T05:41:32.044Z,99637.78
2023-05-16T05:44:35.036Z,99627.91
2023-05-16T05:47:45.144Z,99595.22
2023-05-16T05:50:48.270Z,99585.88
2023-05-16T05:53:51.265Z,99583.25
2023-05-16T05:56:53.959Z,99549.25
2023-05-16T06:00:02.069Z,99595.44
2023-05-16T06:18:25.087Z,99560.16
2023-05-16T06:21:28.245Z,99585.16
2023-05-16T06:24:31.387Z,99558.75
2023-05-16T06:27:38.109Z,99553.38
2023-05-16T06:30:43.945Z,99553.81
2023-05-16T06:33:46.869Z,99556.63
2023-05-16T06:36:52.617Z,99607.31
2023-05-16T06:39:59.361Z,99599.75
2023-05-16T06:43:02.333Z,99609.38
2023-05-16T06:46:08.642Z,99624.44
2023-05-16T06:49:14.282Z,99594.69
2023-05-16T06:52:20.684Z,99575.66
2023-05-16T06:55:23.714Z,99563.88
2023-05-16T06:58:56.450Z,99620.25
2023-05-16T07:01:59.375Z,99541.41
2023-05-16T07:05:03.703Z,99575.19
2023-05-16T07:08:07.978Z,99562.13
2023-05-16T07:11:12.310Z,99595.72
2023-05-16T07:18:21.358Z,99528.03
2023-05-16T07:21:50.095Z,99542.00
2023-05-16T07:25:29.187Z,99588.31
2023-05-16T07:28:35.405Z,99576.41
2023-05-16T07:31:38.368Z,99540.81
2023-05-16T07:34:41.141Z,99564.34
2023-05-16T07:37:44.380Z,99559.59
2023-05-16T07:40:48.384Z,99529.84
2023-05-16T07:43:51.299Z,99596.28
2023-05-16T07:46:56.724Z,99594.13
2023-05-16T07:49:59.410Z,99582.88
2023-05-16T07:53:02.308Z,99563.84
2023-05-16T07:56:05.597Z,99602.69
2023-05-16T07:59:26.588Z,99567.81
2023-05-16T08:02:32.957Z,99571.03
2023-05-16T08:05:35.852Z,99609.06
2023-05-16T08:08:39.847Z,99581.47
2023-05-16T08:11:45.607Z,99537.78
2023-05-16T08:14:52.237Z,99614.78
2023-05-16T08:17:59.020Z,99599.75
2023-05-16T08:21:02.001Z,99556.06
2023-05-16T08:24:08.206Z,99570.78
2023-05-16T08:27:12.246Z,99611.53
2023-05-16T08:30:15.201Z,99616.84
2023-05-16T08:33:23.181Z,99591.44
2023-05-16T08:36:26.330Z,99587.16
2023-05-16T08:39:30.893Z,99598.97
2023-05-16T08:42:44.708Z,99580.75
2023-05-16T08:45:48.947Z,99557.75
2023-05-16T08:50:00.434Z,99544.34
2023-05-16T08:56:21.507Z,99539.53
2023-05-16T09:00:12.620Z,99553.50
2023-05-16T09:03:33.937Z,99539.84
2023-05-16T09:11:36.733Z,99523.75
2023-05-16T09:19:53.312Z,99591.81
2023-05-16T09:23:17.012Z,99517.34
2023-05-16T09:33:24.927Z,99566.13
2023-05-16T09:36:28.150Z,99525.13
2023-05-16T09:39:31.067Z,99557.53
2023-05-16T09:46:05.390Z,99548.19
2023-05-16T09:49:14.522Z,99541.47
2023-05-16T09:52:22.262Z,99523.28
2023-05-16T09:55:30.072Z,99549.00
2023-05-16T09:58:36.210Z,99536.16
2023-05-16T10:01:43.546Z,99524.38
2023-05-16T10:04:48.069Z,99524.13
2023-05-16T10:07:53.543Z,99564.03
2023-05-16T10:11:01.244Z,99510.50
2023-05-16T10:14:07.866Z,99532.19
2023-05-16T10:17:12.491Z,99524.97
2023-05-16T10:20:17.436Z,99548.78
2023-05-16T10:23:23.261Z,99570.19
2023-05-16T10:26:27.016Z,99534.59
2023-05-16T10:29:37.466Z,99491.50
2023-05-16T10:32:46.985Z,99509.72
2023-05-16T10:35:49.980Z,99503.28
2023-05-16T10:38:54.407Z,99470.38
2023-05-16T10:41:57.846Z,99473.59
2023-05-16T10:45:19.221Z,99502.22
2023-05-16T10:48:34.375Z,99461.28
2023-05-16T10:51:39.541Z,99497.66
2023-05-16T10:54:44.027Z,99484.28
2023-05-16T10:57:50.503Z,99451.38
2023-05-16T11:01:14.924Z,99504.88
2023-05-16T11:04:17.878Z,99507.81
2023-05-16T11:07:23.253Z,99469.00
2023-05-16T11:10:26.460Z,99455.56
2023-05-16T11:13:34.481Z,99463.28
2023-05-16T11:16:39.604Z,99493.69
2023-05-16T11:19:50.263Z,99435.09
2023-05-16T11:23:13.157Z,99502.16
2023-05-16T11:26:19.624Z,99445.09
2023-05-16T11:29:26.304Z,99458.97
2023-05-16T11:32:29.697Z,99427.97
2023-05-16T11:35:33.904Z,99448.28
2023-05-16T11:38:37.248Z,99485.75
2023-05-16T11:41:41.669Z,99431.09
2023-05-16T11:44:47.527Z,99481.47
2023-05-16T11:47:50.689Z,99476.88
2023-05-16T11:50:53.990Z,99461.06
2023-05-16T11:53:57.866Z,99449.53
2023-05-16T11:57:00.872Z,99434.53
2023-05-16T12:00:08.167Z,99423.25
2023-05-16T12:03:14.713Z,99420.25
2023-05-16T12:06:17.615Z,99387.13
2023-05-16T12:09:20.544Z,99414.50
2023-05-16T12:12:26.317Z,99418.38
2023-05-16T12:15:29.459Z,99447.22
2023-05-16T12:18:36.144Z,99431.75
2023-05-16T12:21:39.095Z,99377.75
2023-05-16T12:24:41.694Z,99411.06
2023-05-16T12:27:45.850Z,99413.97
2023-05-16T12:30:48.965Z,99383.25
2023-05-16T12:33:54.531Z,99411.25
2023-05-16T12:36:57.527Z,99367.97
2023-05-16T12:40:04.424Z,99401.84
2023-05-16T12:43:23.499Z,99331.06
2023-05-16T12:46:26.676Z,99395.66
2023-05-16T12:49:29.611Z,99397.72
2023-05-16T12:52:32.327Z,99373.78
2023-05-16T12:55:36.133Z,99415.50
2023-05-16T12:58:39.997Z,99392.31
2023-05-16T13:01:42.950Z,99361.66
2023-05-16T13:04:46.700Z,99406.16
2023-05-16T13:07:51.927Z,99404.31
2023-05-16T13:10:56.905Z,99395.91
2023-05-16T13:13:59.879Z,99327.91
2023-05-16T13:17:02.562Z,99377.63
2023-05-16T13:20:10.093Z,99384.06
2023-05-16T13:23:13.794Z,99396.44
2023-05-16T13:26:25.532Z,99393.09
2023-05-16T13:29:28.403Z,99345.66
2023-05-16T13:32:31.375Z,99349.72
2023-05-16T13:35:34.055Z,99343.59
2023-05-16T13:38:37.442Z,99358.78
2023-05-16T13:41:41.489Z,99326.19
2023-05-16T13:44:45.073Z,99323.56
2023-05-16T13:47:48.528Z,99309.44
2023-05-16T13:50:53.421Z,99321.31
2023-05-16T13:53:59.150Z,99286.88
2023-05-16T13:57:03.644Z,99350.19
2023-05-16T14:03:18.977Z,99291.19
2023-05-16T14:06:24.979Z,99323.94
2023-05-16T14:09:28.746Z,99308.97
2023-05-16T14:12:37.814Z,99286.16
2023-05-16T14:15:41.157Z,99281.16
2023-05-16T14:18:44.368Z,99252.19
2023-05-16T14:21:47.317Z,99313.78
2023-05-16T14:24:52.153Z,99277.44
2023-05-16T14:27:54.921Z,99279.53
2023-05-16T14:30:57.751Z,99246.22
2023-05-16T14:34:03.494Z,99285.28
2023-05-16T14:37:06.574Z,99284.81
2023-05-16T14:40:12.347Z,99235.22
2023-05-16T14:43:15.246Z,99250.91
2023-05-16T14:46:18.859Z,99241.03
2023-05-16T14:49:31.245Z,99285.16
2023-05-16T14:52:34.217Z,99245.03
2023-05-16T14:55:38.748Z,99274.94
2023-05-16T14:58:41.484Z,99318.47
2023-05-16T15:01:44.217Z,99325.84
2023-05-16T15:04:46.954Z,99266.50
2023-05-16T15:07:53.026Z,99288.84
2023-05-16T15:10:59.231Z,99273.53
2023-05-16T15:14:04.903Z,99285.41
2023-05-16T15:17:09.070Z,99253.13
2023-05-16T15:20:12.670Z,99302.31
2023-05-16T15:23:15.514Z,99270.63
2023-05-16T15:26:18.561Z,99257.31
2023-05-16T15:29:21.312Z,99305.50
2023-05-16T15:32:24.020Z,99312.06
2023-05-16T15:35:27.319Z,99321.25
2023-05-16T15:38:30.272Z,99307.00
2023-05-16T15:42:00.678Z,99345.50
2023-05-16T15:44:55.726Z,99339.19
2023-05-16T15:47:58.568Z,99322.47
2023-05-16T15:51:03.329Z,99330.47
2023-05-16T15:54:08.675Z,99263.19
2023-05-16T15:57:17.384Z,99261.59
2023-05-16T16:00:26.244Z,99274.59
2023-05-16T16:03:29.863Z,99289.97
2023-05-16T16:06:35.370Z,99302.44
2023-05-16T16:09:43.319Z,99314.66
2023-05-16T16:13:03.804Z,99300.03
2023-05-16T16:16:06.985Z,99327.31
2023-05-16T16:19:10.100Z,99323.56
2023-05-16T16:22:12.892Z,99326.72
2023-05-16T16:25:16.240Z,99307.53
2023-05-16T16:28:20.011Z,99308.53
2023-05-16T16:31:26.614Z,99328.56
2023-05-16T16:34:29.413Z,99321.16
2023-05-16T16:37:32.349Z,99318.41
2023-05-16T16:40:35.429Z,99300.53
2023-05-16T16:43:40.961Z,99272.66
2023-05-16T16:46:43.745Z,99311.91
2023-05-16T16:49:46.479Z,99289.03
2023-05-16T16:52:49.260Z,99336.56
2023-05-16T16:55:51.966Z,99286.69
2023-05-16T16:58:54.834Z,99283.03
2023-05-16T17:01:57.688Z,99304.91
2023-05-16T17:05:02.315Z,99313.47
2023-05-16T17:08:05.311Z,99355.41
2023-05-16T17:11:09.184Z,99341.84
2023-05-16T17:14:11.963Z,99353.09
2023-05-16T17:17:18.842Z,99294.16
2023-05-16T17:20:24.470Z,99310.69
2023-05-16T17:23:27.078Z,99294.78
2023-05-16T17:26:30.021Z,99350.00
2023-05-16T17:29:35.574Z,99293.75
2023-05-16T17:32:40.076Z,99324.06
2023-05-16T17:35:43.415Z,99313.38
2023-05-16T17:38:48.473Z,99346.22
2023-05-16T17:41:54.291Z,99277.13
2023-05-16T17:44:57.034Z,99277.66
2023-05-16T17:47:59.850Z,99282.03
2023-05-16T17:51:02.739Z,99292.94
2023-05-16T17:54:09.171Z,99272.94
2023-05-16T17:57:11.974Z,99325.75
2023-05-16T18:00:21.196Z,99330.03
2023-05-16T18:03:26.125Z,99344.25
2023-05-16T18:06:30.198Z,99311.19
2023-05-16T18:09:38.762Z,99314.16
2023-05-16T18:12:41.909Z,99285.31
2023-05-16T18:15:53.325Z,99292.81
2023-05-16T18:18:56.204Z,99289.88
2023-05-16T18:22:00.157Z,99294.16
2023-05-16T18:25:05.680Z,99334.75
2023-05-16T18:28:08.565Z,99328.84
2023-05-16T18:31:11.936Z,99309.94
2023-05-16T18:34:14.758Z,99279.25
2023-05-16T18:37:19.762Z,99286.16
2023-05-16T18:40:23.726Z,99301.16
2023-05-16T18:43:26.552Z,99327.00
2023-05-16T18:46:29.356Z,99293.41
2023-05-16T18:49:39.259Z,99330.81
2023-05-16T18:52:45.318Z,99282.78
2023-05-16T18:55:49.041Z,99338.53
2023-05-16T18:58:51.824Z,99339.38
2023-05-16T19:01:55.066Z,99286.81
2023-05-16T19:04:59.706Z,99290.78
2023-05-16T19:08:04.243Z,99331.97
2023-05-16T19:11:07.686Z,99308.44
2023-05-16T19:14:10.534Z,99303.69
2023-05-16T19:17:16.470Z,99293.50
2023-05-16T19:20:21.790Z,99293.25
2023-05-16T19:23:24.581Z,99335.38
2023-05-16T19:26:28.239Z,99317.25
2023-05-16T19:29:33.816Z,99327.16
2023-05-16T19:32:39.478Z,99304.47
2023-05-16T19:35:43.000Z,99333.03
2023-05-16T19:38:51.731Z,99295.66
2023-05-16T19:41:56.878Z,99294.81
2023-05-16T19:44:59.760Z,99318.31
2023-05-16T19:48:02.533Z,99326.28
2023-05-16T19:51:12.111Z,99314.28
2023-05-16T19:54:18.123Z,99283.88
2023-05-16T19:57:20.812Z,99315.31
2023-05-16T20:00:23.875Z,99283.84
2023-05-16T20:03:26.721Z,99311.06
2023-05-16T20:06:29.547Z,99337.47
2023-05-16T20:09:32.326Z,99318.75
2023-05-16T20:12:35.177Z,99291.53
2023-05-16T20:15:37.869Z,99303.31
2023-05-16T20:18:40.840Z,99320.41
2023-05-16T20:21:43.599Z,99289.66
2023-05-16T20:24:46.327Z,99262.91
2023-05-16T20:27:49.172Z,99235.63
2023-05-16T20:30:52.047Z,99250.25
2023-05-16T20:33:54.862Z,99282.59
2023-05-16T20:36:58.582Z,99232.56
2023-05-16T20:40:01.558Z,99293.66
2023-05-16T20:43:04.217Z,99263.00
2023-05-16T20:46:07.094Z,99261.69
2023-05-16T20:49:10.239Z,99249.47
2023-05-16T20:52:12.856Z,99311.94
2023-05-16T20:55:15.678Z,99318.13
2023-05-16T20:58:18.521Z,99270.66
2023-05-16T21:01:21.262Z,99300.59
2023-05-16T21:04:24.181Z,99270.19
2023-05-16T21:07:27.039Z,99336.94
2023-05-16T21:10:29.898Z,99361.06
2023-05-16T21:13:32.685Z,99334.34
2023-05-16T21:16:35.396Z,99362.19
2023-05-16T21:19:38.978Z,99378.78
2023-05-16T21:22:42.663Z,99384.16
2023-05-16T21:25:45.588Z,99360.38
2023-05-16T21:28:54.967Z,99365.66
2023-05-16T21:31:58.982Z,99384.88
2023-05-16T21:35:01.855Z,99375.25
2023-05-16T21:38:04.530Z,99367.22
2023-05-16T21:41:07.245Z,99388.31
2023-05-16T21:44:13.530Z,99365.09
2023-05-16T21:47:18.741Z,99377.34
2023-05-16T21:50:21.985Z,99388.34
2023-05-16T21:53:26.197Z,99376.84
2023-05-16T21:56:29.593Z,99391.75
2023-05-16T21:59:32.274Z,99395.78
2023-05-16T22:02:36.247Z,99346.91
2023-05-16T22:05:38.992Z,99399.00
2023-05-16T22:08:42.164Z,99387.25
2023-05-16T22:11:44.917Z,99367.47
2023-05-16T22:14:49.202Z,99366.69
2023-05-16T22:17:52.017Z,99380.88
2023-05-16T22:20:54.787Z,99410.53
2023-05-16T22:23:57.544Z,99406.59
2023-05-16T22:27:00.279Z,99371.00
2023-05-16T22:30:03.180Z,99362.53
2023-05-16T22:33:06.019Z,99390.66
2023-05-16T22:36:09.081Z,99385.31
2023-05-16T22:39:12.796Z,99366.34
2023-05-16T22:42:15.557Z,99416.34
2023-05-16T22:45:18.275Z,99364.97
2023-05-16T22:48:21.375Z,99409.34
2023-05-16T22:51:24.022Z,99385.50
2023-05-16T22:54:26.705Z,99387.34
2023-05-16T22:57:29.404Z,99395.47
2023-05-16T23:00:32.083Z,99423.31
2023-05-16T23:03:34.961Z,99373.28
2023-05-16T23:06:37.801Z,99385.31
2023-05-16T23:09:40.410Z,99369.53
2023-05-16T23:12:43.185Z,99360.94
2023-05-16T23:15:45.931Z,99362.78
2023-05-16T23:18:48.765Z,99374.81
2023-05-16T23:21:52.071Z,99401.25
2023-05-16T23:24:54.966Z,99387.03
2023-05-16T23:27:58.074Z,99408.97
2023-05-16T23:31:00.978Z,99417.25
2023-05-16T23:34:03.831Z,99422.38
2023-05-16T23:37:06.738Z,99416.78
2023-05-16T23:40:09.925Z,99393.75
2023-05-16T23:43:12.745Z,99361.44
2023-05-16T23:46:16.954Z,99422.44
2023-05-16T23:49:19.586Z,99436.63
2023-05-16T23:52:22.207Z,99415.13
2023-05-16T23:55:24.984Z,99391.28
2023-05-16T23:58:27.640Z,99402.75
